sensor_id;sensor_type;location;lat;lon;timestamp;P1;durP1;ratioP1;P2;durP2;ratioP2
78891;SDS011;68368;51.728;5.248;2023-08-24T00:00:20;6.90;;;4.00;;
78891;SDS011;68368;51.728;5.248;2023-08-24T00:02:24;6.50;;;3.90;;
78891;SDS011;68368;51.728;5.248;2023-08-24T00:04:30;5.60;;;3.70;;
78891;SDS011;68368;51.728;5.248;2023-08-24T00:06:41;7.40;;;4.10;;
78891;SDS011;68368;51.728;5.248;2023-08-24T00:08:45;6.60;;;4.60;;
78891;SDS011;68368;51.728;5.248;2023-08-24T00:10:52;8.40;;;4.70;;
78891;SDS011;68368;51.728;5.248;2023-08-24T00:12:56;8.00;;;3.80;;
78891;SDS011;68368;51.728;5.248;2023-08-24T00:15:02;5.80;;;4.10;;
78891;SDS011;68368;51.728;5.248;2023-08-24T00:19:08;8.30;;;4.20;;
78891;SDS011;68368;51.728;5.248;2023-08-24T00:21:12;5.00;;;4.00;;
78891;SDS011;68368;51.728;5.248;2023-08-24T00:23:18;9.30;;;4.60;;
78891;SDS011;68368;51.728;5.248;2023-08-24T00:25:22;7.80;;;5.00;;
78891;SDS011;68368;51.728;5.248;2023-08-24T00:27:25;7.70;;;4.70;;
78891;SDS011;68368;51.728;5.248;2023-08-24T00:29:31;6.90;;;4.30;;
78891;SDS011;68368;51.728;5.248;2023-08-24T00:31:34;8.70;;;4.60;;
78891;SDS011;68368;51.728;5.248;2023-08-24T00:33:38;11.40;;;4.20;;
78891;SDS011;68368;51.728;5.248;2023-08-24T00:35:41;7.40;;;4.40;;
78891;SDS011;68368;51.728;5.248;2023-08-24T00:37:45;11.80;;;4.80;;
78891;SDS011;68368;51.728;5.248;2023-08-24T00:39:50;8.60;;;4.70;;
78891;SDS011;68368;51.728;5.248;2023-08-24T00:41:54;6.60;;;4.50;;
78891;SDS011;68368;51.728;5.248;2023-08-24T00:43:57;6.90;;;4.50;;
78891;SDS011;68368;51.728;5.248;2023-08-24T00:46:02;10.00;;;5.20;;
78891;SDS011;68368;51.728;5.248;2023-08-24T00:48:07;6.90;;;4.50;;
78891;SDS011;68368;51.728;5.248;2023-08-24T00:50:13;6.70;;;4.30;;
78891;SDS011;68368;51.728;5.248;2023-08-24T00:52:18;9.20;;;5.00;;
78891;SDS011;68368;51.728;5.248;2023-08-24T00:54:28;9.60;;;5.30;;
78891;SDS011;68368;51.728;5.248;2023-08-24T00:56:33;7.90;;;4.90;;
78891;SDS011;68368;51.728;5.248;2023-08-24T00:58:36;8.60;;;5.10;;
78891;SDS011;68368;51.728;5.248;2023-08-24T01:00:42;7.80;;;4.80;;
78891;SDS011;68368;51.728;5.248;2023-08-24T01:02:46;9.00;;;5.00;;
78891;SDS011;68368;51.728;5.248;2023-08-24T01:04:51;8.90;;;5.00;;
78891;SDS011;68368;51.728;5.248;2023-08-24T01:06:54;6.80;;;4.90;;
78891;SDS011;68368;51.728;5.248;2023-08-24T01:08:58;6.50;;;4.80;;
78891;SDS011;68368;51.728;5.248;2023-08-24T01:11:04;7.80;;;4.50;;
78891;SDS011;68368;51.728;5.248;2023-08-24T01:13:15;9.30;;;4.90;;
78891;SDS011;68368;51.728;5.248;2023-08-24T01:15:25;7.00;;;5.30;;
78891;SDS011;68368;51.728;5.248;2023-08-24T01:17:38;6.40;;;4.40;;
78891;SDS011;68368;51.728;5.248;2023-08-24T01:19:46;7.80;;;4.60;;
78891;SDS011;68368;51.728;5.248;2023-08-24T01:21:52;6.20;;;4.40;;
78891;SDS011;68368;51.728;5.248;2023-08-24T01:24:01;8.10;;;4.90;;
78891;SDS011;68368;51.728;5.248;2023-08-24T01:26:14;7.00;;;4.90;;
78891;SDS011;68368;51.728;5.248;2023-08-24T01:28:20;6.70;;;5.10;;
78891;SDS011;68368;51.728;5.248;2023-08-24T01:30:28;8.30;;;4.60;;
78891;SDS011;68368;51.728;5.248;2023-08-24T01:32:32;8.70;;;4.80;;
78891;SDS011;68368;51.728;5.248;2023-08-24T01:34:42;7.20;;;4.50;;
78891;SDS011;68368;51.728;5.248;2023-08-24T01:36:48;11.60;;;5.20;;
78891;SDS011;68368;51.728;5.248;2023-08-24T01:38:53;6.20;;;4.30;;
78891;SDS011;68368;51.728;5.248;2023-08-24T01:41:11;10.10;;;4.80;;
78891;SDS011;68368;51.728;5.248;2023-08-24T01:43:21;6.40;;;4.70;;
78891;SDS011;68368;51.728;5.248;2023-08-24T01:45:33;6.90;;;4.80;;
78891;SDS011;68368;51.728;5.248;2023-08-24T01:47:49;8.10;;;4.50;;
78891;SDS011;68368;51.728;5.248;2023-08-24T01:49:56;7.70;;;4.40;;
78891;SDS011;68368;51.728;5.248;2023-08-24T01:52:07;8.20;;;4.60;;
78891;SDS011;68368;51.728;5.248;2023-08-24T01:54:11;6.30;;;4.60;;
78891;SDS011;68368;51.728;5.248;2023-08-24T01:56:16;8.40;;;5.10;;
78891;SDS011;68368;51.728;5.248;2023-08-24T01:58:21;6.30;;;4.50;;
78891;SDS011;68368;51.728;5.248;2023-08-24T02:00:24;8.50;;;5.40;;
78891;SDS011;68368;51.728;5.248;2023-08-24T02:02:28;8.20;;;4.90;;
78891;SDS011;68368;51.728;5.248;2023-08-24T02:04:32;8.20;;;4.50;;
78891;SDS011;68368;51.728;5.248;2023-08-24T02:06:35;7.20;;;4.50;;
78891;SDS011;68368;51.728;5.248;2023-08-24T02:08:39;8.50;;;4.20;;
78891;SDS011;68368;51.728;5.248;2023-08-24T02:10:46;5.90;;;4.80;;
78891;SDS011;68368;51.728;5.248;2023-08-24T02:12:50;9.50;;;5.10;;
78891;SDS011;68368;51.728;5.248;2023-08-24T02:14:54;6.50;;;4.70;;
78891;SDS011;68368;51.728;5.248;2023-08-24T02:16:58;9.40;;;4.50;;
78891;SDS011;68368;51.728;5.248;2023-08-24T02:19:01;6.00;;;4.30;;
78891;SDS011;68368;51.728;5.248;2023-08-24T02:21:08;8.50;;;4.80;;
78891;SDS011;68368;51.728;5.248;2023-08-24T02:23:13;7.80;;;4.60;;
78891;SDS011;68368;51.728;5.248;2023-08-24T02:25:16;11.30;;;5.50;;
78891;SDS011;68368;51.728;5.248;2023-08-24T02:27:25;8.90;;;6.00;;
78891;SDS011;68368;51.728;5.248;2023-08-24T02:29:30;8.50;;;5.00;;
78891;SDS011;68368;51.728;5.248;2023-08-24T02:31:33;7.80;;;4.70;;
78891;SDS011;68368;51.728;5.248;2023-08-24T02:33:37;8.40;;;4.80;;
78891;SDS011;68368;51.728;5.248;2023-08-24T02:35:40;8.70;;;4.80;;
78891;SDS011;68368;51.728;5.248;2023-08-24T02:37:45;9.40;;;4.60;;
78891;SDS011;68368;51.728;5.248;2023-08-24T02:39:49;11.10;;;5.50;;
78891;SDS011;68368;51.728;5.248;2023-08-24T02:41:53;9.60;;;5.70;;
78891;SDS011;68368;51.728;5.248;2023-08-24T02:43:56;8.90;;;5.70;;
78891;SDS011;68368;51.728;5.248;2023-08-24T02:46:05;9.80;;;5.90;;
78891;SDS011;68368;51.728;5.248;2023-08-24T02:48:09;10.00;;;5.40;;
78891;SDS011;68368;51.728;5.248;2023-08-24T02:50:13;9.50;;;5.80;;
78891;SDS011;68368;51.728;5.248;2023-08-24T02:52:19;11.40;;;6.30;;
78891;SDS011;68368;51.728;5.248;2023-08-24T02:54:27;10.30;;;5.90;;
78891;SDS011;68368;51.728;5.248;2023-08-24T02:58:45;9.30;;;6.20;;
78891;SDS011;68368;51.728;5.248;2023-08-24T03:00:51;10.00;;;6.50;;
78891;SDS011;68368;51.728;5.248;2023-08-24T03:02:54;12.50;;;6.40;;
78891;SDS011;68368;51.728;5.248;2023-08-24T03:05:00;11.40;;;7.40;;
78891;SDS011;68368;51.728;5.248;2023-08-24T03:09:07;11.40;;;7.90;;
78891;SDS011;68368;51.728;5.248;2023-08-24T03:11:11;10.90;;;6.80;;
78891;SDS011;68368;51.728;5.248;2023-08-24T03:13:15;13.60;;;6.80;;
78891;SDS011;68368;51.728;5.248;2023-08-24T03:15:21;11.30;;;8.40;;
78891;SDS011;68368;51.728;5.248;2023-08-24T03:17:24;12.90;;;7.10;;
78891;SDS011;68368;51.728;5.248;2023-08-24T03:19:28;15.70;;;7.90;;
78891;SDS011;68368;51.728;5.248;2023-08-24T03:21:31;12.00;;;7.90;;
78891;SDS011;68368;51.728;5.248;2023-08-24T03:23:36;10.40;;;7.20;;
78891;SDS011;68368;51.728;5.248;2023-08-24T03:25:39;11.00;;;7.90;;
78891;SDS011;68368;51.728;5.248;2023-08-24T03:27:43;10.80;;;8.00;;
78891;SDS011;68368;51.728;5.248;2023-08-24T03:29:47;11.10;;;7.30;;
78891;SDS011;68368;51.728;5.248;2023-08-24T03:31:54;11.10;;;6.80;;
78891;SDS011;68368;51.728;5.248;2023-08-24T03:33:57;12.60;;;7.80;;
78891;SDS011;68368;51.728;5.248;2023-08-24T03:36:00;10.70;;;7.50;;
78891;SDS011;68368;51.728;5.248;2023-08-24T03:38:04;10.60;;;7.50;;
78891;SDS011;68368;51.728;5.248;2023-08-24T03:40:09;14.20;;;8.30;;
78891;SDS011;68368;51.728;5.248;2023-08-24T03:44:16;13.70;;;8.50;;
78891;SDS011;68368;51.728;5.248;2023-08-24T03:46:20;13.90;;;8.30;;
78891;SDS011;68368;51.728;5.248;2023-08-24T03:48:23;16.10;;;8.90;;
78891;SDS011;68368;51.728;5.248;2023-08-24T03:50:27;13.20;;;7.90;;
78891;SDS011;68368;51.728;5.248;2023-08-24T03:52:33;11.30;;;8.50;;
78891;SDS011;68368;51.728;5.248;2023-08-24T03:54:36;11.40;;;8.10;;
78891;SDS011;68368;51.728;5.248;2023-08-24T03:56:39;14.70;;;8.70;;
78891;SDS011;68368;51.728;5.248;2023-08-24T03:58:43;14.80;;;8.80;;
78891;SDS011;68368;51.728;5.248;2023-08-24T04:00:46;14.70;;;9.80;;
78891;SDS011;68368;51.728;5.248;2023-08-24T04:02:50;12.80;;;9.30;;
78891;SDS011;68368;51.728;5.248;2023-08-24T04:04:55;15.60;;;9.10;;
78891;SDS011;68368;51.728;5.248;2023-08-24T04:06:59;13.90;;;8.60;;
78891;SDS011;68368;51.728;5.248;2023-08-24T04:09:04;15.10;;;9.70;;
78891;SDS011;68368;51.728;5.248;2023-08-24T04:11:07;16.80;;;9.40;;
78891;SDS011;68368;51.728;5.248;2023-08-24T04:13:13;13.40;;;9.30;;
78891;SDS011;68368;51.728;5.248;2023-08-24T04:15:17;14.00;;;9.70;;
78891;SDS011;68368;51.728;5.248;2023-08-24T04:17:21;13.50;;;9.20;;
78891;SDS011;68368;51.728;5.248;2023-08-24T04:19:26;14.50;;;10.10;;
78891;SDS011;68368;51.728;5.248;2023-08-24T04:21:32;12.80;;;9.90;;
78891;SDS011;68368;51.728;5.248;2023-08-24T04:23:37;15.30;;;10.20;;
78891;SDS011;68368;51.728;5.248;2023-08-24T04:25:41;15.90;;;9.50;;
78891;SDS011;68368;51.728;5.248;2023-08-24T04:27:44;15.60;;;9.80;;
78891;SDS011;68368;51.728;5.248;2023-08-24T04:29:47;15.50;;;10.00;;
78891;SDS011;68368;51.728;5.248;2023-08-24T04:31:51;13.40;;;9.80;;
78891;SDS011;68368;51.728;5.248;2023-08-24T04:33:56;12.90;;;9.80;;
78891;SDS011;68368;51.728;5.248;2023-08-24T04:35:59;14.80;;;9.30;;
78891;SDS011;68368;51.728;5.248;2023-08-24T04:38:04;17.70;;;10.40;;
78891;SDS011;68368;51.728;5.248;2023-08-24T04:40:10;13.90;;;9.40;;
78891;SDS011;68368;51.728;5.248;2023-08-24T04:42:14;13.50;;;10.00;;
78891;SDS011;68368;51.728;5.248;2023-08-24T04:44:20;16.40;;;10.50;;
78891;SDS011;68368;51.728;5.248;2023-08-24T04:46:24;14.30;;;10.50;;
78891;SDS011;68368;51.728;5.248;2023-08-24T04:48:35;15.20;;;10.70;;
78891;SDS011;68368;51.728;5.248;2023-08-24T04:50:38;14.20;;;10.50;;
78891;SDS011;68368;51.728;5.248;2023-08-24T04:52:43;17.70;;;11.00;;
78891;SDS011;68368;51.728;5.248;2023-08-24T04:54:46;16.00;;;9.80;;
78891;SDS011;68368;51.728;5.248;2023-08-24T04:56:50;17.30;;;10.90;;
78891;SDS011;68368;51.728;5.248;2023-08-24T04:58:54;16.40;;;11.40;;
78891;SDS011;68368;51.728;5.248;2023-08-24T05:01:00;16.90;;;11.70;;
78891;SDS011;68368;51.728;5.248;2023-08-24T05:03:04;18.50;;;11.80;;
78891;SDS011;68368;51.728;5.248;2023-08-24T05:05:13;16.10;;;10.80;;
78891;SDS011;68368;51.728;5.248;2023-08-24T05:07:17;16.80;;;11.60;;
78891;SDS011;68368;51.728;5.248;2023-08-24T05:09:21;19.60;;;11.00;;
78891;SDS011;68368;51.728;5.248;2023-08-24T05:11:27;18.00;;;11.70;;
78891;SDS011;68368;51.728;5.248;2023-08-24T05:13:31;17.40;;;11.70;;
78891;SDS011;68368;51.728;5.248;2023-08-24T05:15:34;18.00;;;11.60;;
78891;SDS011;68368;51.728;5.248;2023-08-24T05:17:37;20.90;;;12.10;;
78891;SDS011;68368;51.728;5.248;2023-08-24T05:19:42;16.80;;;11.10;;
78891;SDS011;68368;51.728;5.248;2023-08-24T05:21:45;17.90;;;11.20;;
78891;SDS011;68368;51.728;5.248;2023-08-24T05:23:48;16.00;;;11.50;;
78891;SDS011;68368;51.728;5.248;2023-08-24T05:25:55;20.90;;;11.30;;
78891;SDS011;68368;51.728;5.248;2023-08-24T05:27:59;16.40;;;10.90;;
78891;SDS011;68368;51.728;5.248;2023-08-24T05:30:03;17.50;;;11.00;;
78891;SDS011;68368;51.728;5.248;2023-08-24T05:34:15;14.70;;;10.80;;
78891;SDS011;68368;51.728;5.248;2023-08-24T05:36:18;20.70;;;11.70;;
78891;SDS011;68368;51.728;5.248;2023-08-24T05:38:22;15.00;;;10.20;;
78891;SDS011;68368;51.728;5.248;2023-08-24T05:40:25;15.30;;;9.80;;
78891;SDS011;68368;51.728;5.248;2023-08-24T05:42:31;14.70;;;10.60;;
78891;SDS011;68368;51.728;5.248;2023-08-24T05:44:36;15.40;;;10.80;;
78891;SDS011;68368;51.728;5.248;2023-08-24T05:46:41;16.80;;;11.30;;
78891;SDS011;68368;51.728;5.248;2023-08-24T05:48:44;18.60;;;11.00;;
78891;SDS011;68368;51.728;5.248;2023-08-24T05:50:48;14.70;;;10.20;;
78891;SDS011;68368;51.728;5.248;2023-08-24T05:52:51;13.10;;;10.00;;
78891;SDS011;68368;51.728;5.248;2023-08-24T05:54:55;15.90;;;10.80;;
78891;SDS011;68368;51.728;5.248;2023-08-24T05:56:58;13.20;;;9.00;;
78891;SDS011;68368;51.728;5.248;2023-08-24T05:59:02;15.40;;;9.50;;
78891;SDS011;68368;51.728;5.248;2023-08-24T06:01:06;13.80;;;10.20;;
78891;SDS011;68368;51.728;5.248;2023-08-24T06:03:14;13.90;;;9.90;;
78891;SDS011;68368;51.728;5.248;2023-08-24T06:05:20;15.90;;;9.90;;
78891;SDS011;68368;51.728;5.248;2023-08-24T06:07:23;13.50;;;9.80;;
78891;SDS011;68368;51.728;5.248;2023-08-24T06:09:27;12.10;;;9.80;;
78891;SDS011;68368;51.728;5.248;2023-08-24T06:11:31;14.10;;;9.90;;
78891;SDS011;68368;51.728;5.248;2023-08-24T06:13:35;12.80;;;9.70;;
78891;SDS011;68368;51.728;5.248;2023-08-24T06:15:41;12.40;;;9.80;;
78891;SDS011;68368;51.728;5.248;2023-08-24T06:17:44;14.10;;;9.70;;
78891;SDS011;68368;51.728;5.248;2023-08-24T06:19:48;15.20;;;9.90;;
78891;SDS011;68368;51.728;5.248;2023-08-24T06:21:51;13.20;;;9.70;;
78891;SDS011;68368;51.728;5.248;2023-08-24T06:23:54;11.60;;;9.40;;
78891;SDS011;68368;51.728;5.248;2023-08-24T06:25:57;12.10;;;9.00;;
78891;SDS011;68368;51.728;5.248;2023-08-24T06:28:01;12.20;;;9.70;;
78891;SDS011;68368;51.728;5.248;2023-08-24T06:30:07;12.70;;;9.90;;
78891;SDS011;68368;51.728;5.248;2023-08-24T06:32:10;14.70;;;10.50;;
78891;SDS011;68368;51.728;5.248;2023-08-24T06:34:13;12.40;;;9.00;;
78891;SDS011;68368;51.728;5.248;2023-08-24T06:36:18;13.70;;;10.30;;
78891;SDS011;68368;51.728;5.248;2023-08-24T06:38:22;12.70;;;10.00;;
78891;SDS011;68368;51.728;5.248;2023-08-24T06:40:26;13.50;;;10.70;;
78891;SDS011;68368;51.728;5.248;2023-08-24T06:42:32;10.50;;;9.00;;
78891;SDS011;68368;51.728;5.248;2023-08-24T06:46:38;13.60;;;10.40;;
78891;SDS011;68368;51.728;5.248;2023-08-24T06:48:42;13.30;;;10.40;;
78891;SDS011;68368;51.728;5.248;2023-08-24T06:50:45;13.30;;;10.40;;
78891;SDS011;68368;51.728;5.248;2023-08-24T06:52:48;15.90;;;10.00;;
78891;SDS011;68368;51.728;5.248;2023-08-24T06:54:51;11.80;;;8.90;;
78891;SDS011;68368;51.728;5.248;2023-08-24T06:57:03;12.90;;;11.00;;
78891;SDS011;68368;51.728;5.248;2023-08-24T06:59:08;11.00;;;9.90;;
78891;SDS011;68368;51.728;5.248;2023-08-24T07:01:11;11.90;;;9.10;;
78891;SDS011;68368;51.728;5.248;2023-08-24T07:03:15;11.20;;;9.60;;
78891;SDS011;68368;51.728;5.248;2023-08-24T07:05:18;11.00;;;9.00;;
78891;SDS011;68368;51.728;5.248;2023-08-24T07:07:21;12.60;;;9.60;;
78891;SDS011;68368;51.728;5.248;2023-08-24T07:09:24;11.60;;;9.40;;
78891;SDS011;68368;51.728;5.248;2023-08-24T07:11:28;12.70;;;9.90;;
78891;SDS011;68368;51.728;5.248;2023-08-24T07:13:32;11.20;;;9.10;;
78891;SDS011;68368;51.728;5.248;2023-08-24T07:15:36;10.80;;;8.80;;
78891;SDS011;68368;51.728;5.248;2023-08-24T07:17:39;13.00;;;8.60;;
78891;SDS011;68368;51.728;5.248;2023-08-24T07:19:44;11.20;;;8.80;;
78891;SDS011;68368;51.728;5.248;2023-08-24T07:21:47;14.90;;;9.10;;
78891;SDS011;68368;51.728;5.248;2023-08-24T07:23:50;10.90;;;8.80;;
78891;SDS011;68368;51.728;5.248;2023-08-24T07:25:53;12.00;;;8.90;;
78891;SDS011;68368;51.728;5.248;2023-08-24T07:27:57;11.30;;;8.60;;
78891;SDS011;68368;51.728;5.248;2023-08-24T07:30:02;10.20;;;9.10;;
78891;SDS011;68368;51.728;5.248;2023-08-24T07:32:07;10.40;;;8.80;;
78891;SDS011;68368;51.728;5.248;2023-08-24T07:34:11;10.50;;;8.70;;
78891;SDS011;68368;51.728;5.248;2023-08-24T07:36:15;11.20;;;9.00;;
78891;SDS011;68368;51.728;5.248;2023-08-24T07:38:19;12.30;;;8.70;;
78891;SDS011;68368;51.728;5.248;2023-08-24T07:40:22;13.40;;;8.90;;
78891;SDS011;68368;51.728;5.248;2023-08-24T07:42:25;13.20;;;9.50;;
78891;SDS011;68368;51.728;5.248;2023-08-24T07:44:31;9.60;;;8.10;;
78891;SDS011;68368;51.728;5.248;2023-08-24T07:46:34;12.80;;;8.60;;
78891;SDS011;68368;51.728;5.248;2023-08-24T07:48:39;11.40;;;8.70;;
78891;SDS011;68368;51.728;5.248;2023-08-24T07:50:44;12.90;;;8.20;;
78891;SDS011;68368;51.728;5.248;2023-08-24T07:52:52;13.60;;;8.80;;
78891;SDS011;68368;51.728;5.248;2023-08-24T07:54:56;13.30;;;8.50;;
78891;SDS011;68368;51.728;5.248;2023-08-24T07:57:05;15.00;;;9.00;;
78891;SDS011;68368;51.728;5.248;2023-08-24T07:59:16;10.70;;;9.00;;
78891;SDS011;68368;51.728;5.248;2023-08-24T08:01:24;11.10;;;9.10;;
78891;SDS011;68368;51.728;5.248;2023-08-24T08:03:32;11.60;;;8.40;;
78891;SDS011;68368;51.728;5.248;2023-08-24T08:05:36;13.40;;;9.00;;
78891;SDS011;68368;51.728;5.248;2023-08-24T08:07:42;11.90;;;9.00;;
78891;SDS011;68368;51.728;5.248;2023-08-24T08:09:45;12.10;;;8.70;;
78891;SDS011;68368;51.728;5.248;2023-08-24T08:11:49;11.90;;;9.30;;
78891;SDS011;68368;51.728;5.248;2023-08-24T08:13:53;10.00;;;8.50;;
78891;SDS011;68368;51.728;5.248;2023-08-24T08:16:01;10.00;;;8.60;;
78891;SDS011;68368;51.728;5.248;2023-08-24T08:18:05;11.00;;;8.90;;
78891;SDS011;68368;51.728;5.248;2023-08-24T08:20:09;12.10;;;10.40;;
78891;SDS011;68368;51.728;5.248;2023-08-24T08:22:15;11.30;;;8.60;;
78891;SDS011;68368;51.728;5.248;2023-08-24T08:24:18;12.20;;;9.10;;
78891;SDS011;68368;51.728;5.248;2023-08-24T08:26:23;10.50;;;8.50;;
78891;SDS011;68368;51.728;5.248;2023-08-24T08:28:29;11.20;;;8.30;;
78891;SDS011;68368;51.728;5.248;2023-08-24T08:32:35;10.20;;;8.00;;
78891;SDS011;68368;51.728;5.248;2023-08-24T08:34:38;10.00;;;8.40;;
78891;SDS011;68368;51.728;5.248;2023-08-24T08:36:43;12.70;;;8.40;;
78891;SDS011;68368;51.728;5.248;2023-08-24T08:38:46;11.70;;;8.50;;
78891;SDS011;68368;51.728;5.248;2023-08-24T08:40:51;11.20;;;8.70;;
78891;SDS011;68368;51.728;5.248;2023-08-24T08:42:57;11.00;;;8.30;;
78891;SDS011;68368;51.728;5.248;2023-08-24T08:45:01;11.20;;;8.00;;
78891;SDS011;68368;51.728;5.248;2023-08-24T08:47:12;15.50;;;9.20;;
78891;SDS011;68368;51.728;5.248;2023-08-24T08:49:18;12.30;;;8.90;;
78891;SDS011;68368;51.728;5.248;2023-08-24T08:51:22;9.70;;;7.80;;
78891;SDS011;68368;51.728;5.248;2023-08-24T08:53:26;11.00;;;8.70;;
78891;SDS011;68368;51.728;5.248;2023-08-24T08:55:31;11.00;;;8.90;;
78891;SDS011;68368;51.728;5.248;2023-08-24T08:57:34;10.90;;;8.60;;
78891;SDS011;68368;51.728;5.248;2023-08-24T08:59:38;14.10;;;8.60;;
78891;SDS011;68368;51.728;5.248;2023-08-24T09:01:42;11.90;;;9.50;;
78891;SDS011;68368;51.728;5.248;2023-08-24T09:03:47;9.70;;;8.50;;
78891;SDS011;68368;51.728;5.248;2023-08-24T09:05:51;12.10;;;8.80;;
78891;SDS011;68368;51.728;5.248;2023-08-24T09:07:54;12.60;;;8.40;;
78891;SDS011;68368;51.728;5.248;2023-08-24T09:09:59;12.30;;;8.90;;
78891;SDS011;68368;51.728;5.248;2023-08-24T09:12:04;11.40;;;8.30;;
78891;SDS011;68368;51.728;5.248;2023-08-24T09:14:09;11.00;;;7.60;;
78891;SDS011;68368;51.728;5.248;2023-08-24T09:16:13;11.70;;;8.40;;
78891;SDS011;68368;51.728;5.248;2023-08-24T09:18:17;11.90;;;8.70;;
78891;SDS011;68368;51.728;5.248;2023-08-24T09:20:20;11.30;;;7.60;;
78891;SDS011;68368;51.728;5.248;2023-08-24T09:22:24;10.80;;;7.60;;
78891;SDS011;68368;51.728;5.248;2023-08-24T09:24:30;9.80;;;7.90;;
78891;SDS011;68368;51.728;5.248;2023-08-24T09:26:37;9.00;;;7.80;;
78891;SDS011;68368;51.728;5.248;2023-08-24T09:28:43;10.70;;;8.50;;
78891;SDS011;68368;51.728;5.248;2023-08-24T09:30:49;10.40;;;7.40;;
78891;SDS011;68368;51.728;5.248;2023-08-24T09:32:55;12.90;;;7.80;;
78891;SDS011;68368;51.728;5.248;2023-08-24T09:35:07;10.20;;;8.40;;
78891;SDS011;68368;51.728;5.248;2023-08-24T09:37:15;12.80;;;9.20;;
78891;SDS011;68368;51.728;5.248;2023-08-24T09:39:18;10.50;;;8.20;;
78891;SDS011;68368;51.728;5.248;2023-08-24T09:41:22;13.40;;;9.10;;
78891;SDS011;68368;51.728;5.248;2023-08-24T09:43:25;12.40;;;9.20;;
78891;SDS011;68368;51.728;5.248;2023-08-24T09:45:31;11.60;;;8.80;;
78891;SDS011;68368;51.728;5.248;2023-08-24T09:47:37;11.60;;;8.80;;
78891;SDS011;68368;51.728;5.248;2023-08-24T09:49:46;12.00;;;9.00;;
78891;SDS011;68368;51.728;5.248;2023-08-24T09:51:50;10.40;;;8.10;;
78891;SDS011;68368;51.728;5.248;2023-08-24T09:54:04;11.20;;;8.80;;
78891;SDS011;68368;51.728;5.248;2023-08-24T09:56:09;13.00;;;9.30;;
78891;SDS011;68368;51.728;5.248;2023-08-24T09:58:14;12.40;;;8.80;;
78891;SDS011;68368;51.728;5.248;2023-08-24T10:00:19;11.40;;;8.20;;
78891;SDS011;68368;51.728;5.248;2023-08-24T10:02:22;10.40;;;8.70;;
78891;SDS011;68368;51.728;5.248;2023-08-24T10:04:28;11.60;;;9.40;;
78891;SDS011;68368;51.728;5.248;2023-08-24T10:06:35;11.90;;;8.80;;
78891;SDS011;68368;51.728;5.248;2023-08-24T10:08:42;13.10;;;9.20;;
78891;SDS011;68368;51.728;5.248;2023-08-24T10:10:57;12.70;;;8.60;;
78891;SDS011;68368;51.728;5.248;2023-08-24T10:13:04;12.60;;;8.70;;
78891;SDS011;68368;51.728;5.248;2023-08-24T10:15:13;11.80;;;8.90;;
78891;SDS011;68368;51.728;5.248;2023-08-24T10:17:19;17.90;;;10.40;;
78891;SDS011;68368;51.728;5.248;2023-08-24T10:19:25;13.70;;;9.90;;
78891;SDS011;68368;51.728;5.248;2023-08-24T10:21:31;13.30;;;8.90;;
78891;SDS011;68368;51.728;5.248;2023-08-24T10:23:35;14.50;;;9.30;;
78891;SDS011;68368;51.728;5.248;2023-08-24T10:25:50;14.50;;;9.60;;
78891;SDS011;68368;51.728;5.248;2023-08-24T10:27:57;12.60;;;9.70;;
78891;SDS011;68368;51.728;5.248;2023-08-24T10:30:03;11.90;;;8.80;;
78891;SDS011;68368;51.728;5.248;2023-08-24T10:32:10;13.10;;;8.50;;
78891;SDS011;68368;51.728;5.248;2023-08-24T10:34:15;12.10;;;7.90;;
78891;SDS011;68368;51.728;5.248;2023-08-24T10:36:19;11.80;;;8.50;;
78891;SDS011;68368;51.728;5.248;2023-08-24T10:38:25;10.90;;;8.40;;
78891;SDS011;68368;51.728;5.248;2023-08-24T10:40:33;11.80;;;8.20;;
78891;SDS011;68368;51.728;5.248;2023-08-24T10:42:47;12.70;;;8.70;;
78891;SDS011;68368;51.728;5.248;2023-08-24T10:44:51;10.50;;;7.70;;
78891;SDS011;68368;51.728;5.248;2023-08-24T10:47:13;14.80;;;9.30;;
78891;SDS011;68368;51.728;5.248;2023-08-24T10:49:19;12.10;;;9.00;;
78891;SDS011;68368;51.728;5.248;2023-08-24T10:51:24;12.00;;;9.10;;
78891;SDS011;68368;51.728;5.248;2023-08-24T10:53:39;13.40;;;10.10;;
78891;SDS011;68368;51.728;5.248;2023-08-24T10:55:45;15.70;;;10.70;;
78891;SDS011;68368;51.728;5.248;2023-08-24T10:57:55;15.80;;;10.60;;
78891;SDS011;68368;51.728;5.248;2023-08-24T10:59:59;15.70;;;10.70;;
78891;SDS011;68368;51.728;5.248;2023-08-24T11:02:04;14.80;;;10.90;;
78891;SDS011;68368;51.728;5.248;2023-08-24T11:04:19;15.30;;;11.60;;
78891;SDS011;68368;51.728;5.248;2023-08-24T11:06:23;16.10;;;11.70;;
78891;SDS011;68368;51.728;5.248;2023-08-24T11:10:47;11.80;;;10.40;;
78891;SDS011;68368;51.728;5.248;2023-08-24T11:13:05;15.20;;;11.40;;
78891;SDS011;68368;51.728;5.248;2023-08-24T11:15:10;14.20;;;10.60;;
78891;SDS011;68368;51.728;5.248;2023-08-24T11:17:31;16.10;;;10.60;;
78891;SDS011;68368;51.728;5.248;2023-08-24T11:19:34;16.30;;;11.50;;
78891;SDS011;68368;51.728;5.248;2023-08-24T11:21:39;14.10;;;10.20;;
78891;SDS011;68368;51.728;5.248;2023-08-24T11:23:45;13.30;;;9.70;;
78891;SDS011;68368;51.728;5.248;2023-08-24T11:25:49;13.50;;;9.30;;
78891;SDS011;68368;51.728;5.248;2023-08-24T11:27:54;12.70;;;9.70;;
78891;SDS011;68368;51.728;5.248;2023-08-24T11:30:02;12.80;;;9.70;;
78891;SDS011;68368;51.728;5.248;2023-08-24T11:32:06;12.50;;;9.40;;
78891;SDS011;68368;51.728;5.248;2023-08-24T11:34:09;15.00;;;9.70;;
78891;SDS011;68368;51.728;5.248;2023-08-24T11:36:16;13.30;;;10.80;;
78891;SDS011;68368;51.728;5.248;2023-08-24T11:38:19;13.20;;;10.50;;
78891;SDS011;68368;51.728;5.248;2023-08-24T11:40:22;14.80;;;10.80;;
78891;SDS011;68368;51.728;5.248;2023-08-24T11:42:26;14.10;;;10.20;;
78891;SDS011;68368;51.728;5.248;2023-08-24T11:44:46;16.40;;;10.70;;
78891;SDS011;68368;51.728;5.248;2023-08-24T11:46:50;14.30;;;10.80;;
78891;SDS011;68368;51.728;5.248;2023-08-24T11:48:54;14.80;;;10.30;;
78891;SDS011;68368;51.728;5.248;2023-08-24T11:50:58;15.30;;;11.00;;
78891;SDS011;68368;51.728;5.248;2023-08-24T11:53:01;13.00;;;10.80;;
78891;SDS011;68368;51.728;5.248;2023-08-24T11:55:08;13.40;;;10.10;;
78891;SDS011;68368;51.728;5.248;2023-08-24T11:57:11;14.20;;;11.10;;
78891;SDS011;68368;51.728;5.248;2023-08-24T11:59:15;15.00;;;10.60;;
78891;SDS011;68368;51.728;5.248;2023-08-24T12:01:20;16.00;;;10.60;;
78891;SDS011;68368;51.728;5.248;2023-08-24T12:03:25;12.90;;;10.40;;
78891;SDS011;68368;51.728;5.248;2023-08-24T12:05:30;14.00;;;9.50;;
78891;SDS011;68368;51.728;5.248;2023-08-24T12:07:34;14.90;;;10.50;;
78891;SDS011;68368;51.728;5.248;2023-08-24T12:09:39;12.90;;;9.30;;
78891;SDS011;68368;51.728;5.248;2023-08-24T12:11:45;12.30;;;9.20;;
78891;SDS011;68368;51.728;5.248;2023-08-24T12:13:51;13.30;;;8.40;;
78891;SDS011;68368;51.728;5.248;2023-08-24T12:15:57;12.20;;;8.50;;
78891;SDS011;68368;51.728;5.248;2023-08-24T12:20:19;10.00;;;7.20;;
78891;SDS011;68368;51.728;5.248;2023-08-24T12:22:27;12.90;;;9.00;;
78891;SDS011;68368;51.728;5.248;2023-08-24T12:24:37;13.20;;;8.90;;
78891;SDS011;68368;51.728;5.248;2023-08-24T12:29:01;12.20;;;8.60;;
78891;SDS011;68368;51.728;5.248;2023-08-24T12:31:06;11.50;;;8.70;;
78891;SDS011;68368;51.728;5.248;2023-08-24T12:33:27;11.20;;;8.00;;
78891;SDS011;68368;51.728;5.248;2023-08-24T12:35:32;12.50;;;9.10;;
78891;SDS011;68368;51.728;5.248;2023-08-24T12:37:36;12.20;;;8.30;;
78891;SDS011;68368;51.728;5.248;2023-08-24T12:39:39;9.80;;;7.20;;
78891;SDS011;68368;51.728;5.248;2023-08-24T12:41:43;12.20;;;7.80;;
78891;SDS011;68368;51.728;5.248;2023-08-24T12:43:46;10.90;;;8.30;;
78891;SDS011;68368;51.728;5.248;2023-08-24T12:45:49;11.60;;;7.60;;